Time;durP1;ratioP1;P1;durP2;ratioP2;P2;SDS_P1;SDS_P2;PMS_P1;PMS_P2;Temp;Humidity;BMP_temperature;BMP_pressure;BME280_temperature;BME280_humidity;BME280_pressure;Samples;Min_cycle;Max_cycle;Signal;HPM_P1;HPM_P2
2024/01/14 00:00:11;;;;;;;2.65;1.05;;;;;;;-15.81;54.49;99090.81;5061938;28;20067;-64
2024/01/14 00:02:56;;;;;;;4.05;0.65;;;;;;;-15.76;55.42;99079.50;5071915;28;20037;-63
2024/01/14 00:05:23;;;;;;;4.22;1.13;;;;;;;-15.70;55.57;99080.69;5069872;28;20056;-63
2024/01/14 00:07:49;;;;;;;1.48;0.70;;;;;;;-15.95;55.73;99027.75;5056053;28;20063;-65
2024/01/14 00:10:15;;;;;;;4.50;1.65;;;;;;;-15.70;56.51;99059.94;5065610;28;20036;-63
2024/01/14 00:12:41;;;;;;;3.17;1.05;;;;;;;-15.58;56.35;99056.50;5077721;28;20056;-64
2024/01/14 00:15:08;;;;;;;1.27;0.65;;;;;;;-15.46;56.74;99061.28;5072986;28;20032;-64
2024/01/14 00:17:34;;;;;;;3.60;1.20;;;;;;;-15.66;56.59;99002.06;5082025;28;20919;-65
2024/01/14 00:20:01;;;;;;;3.15;1.67;;;;;;;-15.47;56.00;99009.75;5072939;28;20082;-63
2024/01/14 00:22:27;;;;;;;6.80;1.10;;;;;;;-15.29;56.39;99034.84;5069788;28;20040;-69
2024/01/14 00:24:54;;;;;;;1.42;1.27;;;;;;;-15.26;56.29;99030.88;5070440;28;20040;-65
2024/01/14 00:27:20;;;;;;;2.00;1.05;;;;;;;-15.32;56.29;99025.56;5081125;28;20504;-65
2024/01/14 00:29:46;;;;;;;4.10;1.02;;;;;;;-15.26;57.70;99025.03;5054376;28;20036;-65
2024/01/14 00:32:13;;;;;;;3.15;0.75;;;;;;;-15.27;57.57;99015.84;5053550;28;20040;-65
2024/01/14 00:34:42;;;;;;;1.60;0.73;;;;;;;-15.31;57.47;99011.47;5076826;28;20082;-65
2024/01/14 00:37:08;;;;;;;;;;;;;;;-15.34;57.72;99003.84;5067875;28;20052;-64
2024/01/14 00:39:40;;;;;;;0.80;0.80;;;;;;;-15.36;57.36;98997.88;5078654;28;19957;-64
2024/01/14 00:45:09;;;;;;;1.95;1.10;;;;;;;-15.31;58.09;98989.91;5067723;28;20546;-63
2024/01/14 00:47:35;;;;;;;2.90;0.50;;;;;;;-15.36;57.63;98988.78;5078856;28;20046;-64
2024/01/14 00:50:38;;;;;;;0.65;0.40;;;;;;;-15.39;58.67;98977.81;5074768;28;20077;-64
2024/01/14 00:53:08;;;;;;;3.85;1.25;;;;;;;-15.43;58.52;98979.25;5077981;28;20060;-69
2024/01/14 00:55:34;;;;;;;4.25;1.40;;;;;;;-15.68;58.19;98939.72;5077635;28;20040;-65
2024/01/14 00:58:01;;;;;;;3.38;0.93;;;;;;;-15.55;58.80;98972.00;5064319;28;20131;-64
2024/01/14 01:00:28;;;;;;;6.28;1.40;;;;;;;-15.51;58.60;98971.38;5043619;28;20036;-65
2024/01/14 01:03:13;;;;;;;5.05;0.85;;;;;;;-15.52;58.92;98971.31;5071258;28;20071;-64
2024/01/14 01:05:39;;;;;;;2.28;0.95;;;;;;;-15.74;59.54;98921.94;5070399;28;20051;-62
2024/01/14 01:08:08;;;;;;;2.53;1.08;;;;;;;-15.66;59.94;98928.22;5073101;28;20050;-63
2024/01/14 01:10:38;;;;;;;1.80;0.55;;;;;;;-15.38;60.35;98967.06;5061281;28;20508;-64
2024/01/14 01:13:04;;;;;;;4.97;0.93;;;;;;;-15.42;60.08;98965.16;5063959;28;20139;-63
2024/01/14 01:15:31;;;;;;;1.80;0.75;;;;;;;-15.44;60.85;98967.59;5054935;28;20040;-63
2024/01/14 01:17:57;;;;;;;1.42;0.47;;;;;;;-15.92;61.09;98884.47;5070427;28;20143;-63
2024/01/14 01:20:42;;;;;;;1.20;0.50;;;;;;;-15.37;61.49;98962.16;5062029;28;20092;-63
2024/01/14 01:23:09;;;;;;;8.77;0.73;;;;;;;-15.73;60.89;98897.91;5080257;28;20066;-62
2024/01/14 01:25:36;;;;;;;1.02;0.57;;;;;;;-15.38;62.00;98960.44;5071006;28;20210;-64
2024/01/14 01:28:02;;;;;;;1.30;0.70;;;;;;;-15.39;61.75;98956.25;5077897;28;20036;-63
2024/01/14 01:30:29;;;;;;;0.93;0.70;;;;;;;-15.36;62.83;98958.91;5077646;28;20185;-65
2024/01/14 01:35:40;;;;;;;2.00;0.98;;;;;;;-15.64;62.71;98903.38;5069493;28;20040;-63
2024/01/14 01:38:25;;;;;;;1.17;0.85;;;;;;;-15.32;62.54;98957.41;5067236;28;20139;-64
2024/01/14 01:40:51;;;;;;;1.67;0.38;;;;;;;-15.33;63.16;98938.28;5054763;28;20040;-63
2024/01/14 01:43:18;;;;;;;2.58;0.65;;;;;;;-15.82;63.35;98865.03;5080666;28;20546;-63
2024/01/14 01:46:02;;;;;;;3.85;1.42;;;;;;;-15.33;63.74;98943.28;5060280;28;20052;-64
2024/01/14 01:48:29;;;;;;;1.38;0.47;;;;;;;-15.53;63.81;98887.41;5084130;28;20500;-63
2024/01/14 01:51:13;;;;;;;2.85;1.20;;;;;;;-15.27;64.51;98944.44;5071693;28;20048;-63
2024/01/14 01:53:40;;;;;;;2.50;1.10;;;;;;;-15.24;63.75;98941.28;5076084;28;20147;-63
2024/01/14 01:58:51;;;;;;;1.02;0.82;;;;;;;-15.25;64.71;98917.13;5081311;28;20607;-62
2024/01/14 02:01:17;;;;;;;1.58;1.17;;;;;;;-15.24;65.09;98922.19;5079508;28;20124;-63
2024/01/14 02:04:01;;;;;;;2.40;0.93;;;;;;;-15.17;64.93;98913.38;5056419;28;20139;-63
2024/01/14 02:06:27;;;;;;;1.45;0.45;;;;;;;-15.05;65.07;98909.91;5067920;28;20036;-63
2024/01/14 02:08:57;;;;;;;2.15;0.40;;;;;;;-15.15;65.48;98891.91;5068947;28;20044;-64
2024/01/14 02:11:23;;;;;;;;;;;;;;;-15.06;64.59;98904.84;5072308;28;20051;-63
2024/01/14 02:13:48;;;;;;;5.00;1.58;;;;;;;-15.35;65.11;98855.97;5071948;28;19916;-63
2024/01/14 02:16:15;;;;;;;6.15;1.88;;;;;;;-15.09;65.88;98884.75;5070559;28;20090;-63
2024/01/14 02:18:41;;;;;;;1.13;0.77;;;;;;;-15.11;65.30;98878.81;5088110;28;20047;-63
2024/01/14 02:23:59;;;;;;;0.10;0.10;;;;;;;-14.98;65.89;98863.75;5072617;28;20171;-68
2024/01/14 02:26:26;;;;;;;5.78;2.05;;;;;;;-14.98;65.78;98848.78;5063078;28;20166;-64
2024/01/14 02:28:51;;;;;;;3.22;1.67;;;;;;;-15.02;65.61;98849.41;5088205;28;20160;-63
2024/01/14 02:31:18;;;;;;;0.40;0.15;;;;;;;-14.96;65.10;98848.84;5087287;28;20528;-63
2024/01/14 02:33:43;;;;;;;1.45;0.50;;;;;;;-14.94;65.45;98843.19;5086038;28;20044;-64
2024/01/14 02:36:09;;;;;;;1.42;0.52;;;;;;;-15.01;65.87;98846.13;5084060;28;20408;-64
2024/01/14 02:38:35;;;;;;;4.40;1.02;;;;;;;-14.94;65.95;98844.81;5084607;28;20154;-63
2024/01/14 02:41:01;;;;;;;1.48;0.70;;;;;;;-15.04;65.63;98821.06;5083693;28;20127;-64
2024/01/14 02:43:26;;;;;;;2.60;1.00;;;;;;;-14.98;65.63;98832.97;5081234;28;20056;-63
2024/01/14 02:45:52;;;;;;;0.17;0.13;;;;;;;-15.01;66.08;98823.69;5067788;28;20047;-64
2024/01/14 02:48:18;;;;;;;0.85;0.75;;;;;;;-15.13;65.94;98813.13;5085632;28;20040;-63
2024/01/14 02:50:44;;;;;;;7.05;1.20;;;;;;;-15.07;66.61;98810.94;5083501;28;20040;-65
2024/01/14 02:53:11;;;;;;;2.45;0.75;;;;;;;-15.05;66.13;98811.84;5082035;28;20040;-64
2024/01/14 02:55:36;;;;;;;2.80;0.88;;;;;;;-15.11;66.94;98809.03;5085897;28;20040;-64
2024/01/14 02:58:02;;;;;;;0.80;0.40;;;;;;;-15.19;66.50;98798.69;5086610;28;20041;-64
2024/01/14 03:00:28;;;;;;;4.28;1.23;;;;;;;-15.19;66.79;98805.31;5080434;28;20074;-66
2024/01/14 03:02:54;;;;;;;0.75;0.75;;;;;;;-15.20;66.41;98799.47;5079991;28;20835;-66
2024/01/14 03:08:24;;;;;;;1.02;0.82;;;;;;;-15.50;66.29;98748.94;5081714;28;20173;-65
2024/01/14 03:10:49;;;;;;;2.60;1.00;;;;;;;-15.44;66.44;98750.88;5084054;28;20044;-66
2024/01/14 03:13:16;;;;;;;1.38;0.70;;;;;;;-15.19;66.86;98806.16;5068625;28;20066;-64
2024/01/14 03:15:43;;;;;;;1.27;0.63;;;;;;;-15.72;67.52;98717.88;5076348;28;20074;-65
2024/01/14 03:18:10;;;;;;;4.07;1.58;;;;;;;-15.20;68.06;98804.44;5063315;28;20036;-65
2024/01/14 03:20:36;;;;;;;2.45;1.35;;;;;;;-15.21;67.60;98799.38;5079788;28;20058;-66
2024/01/14 03:23:21;;;;;;;3.10;0.73;;;;;;;-15.23;67.38;98794.34;5082051;28;20036;-66
2024/01/14 03:25:47;;;;;;;2.95;1.27;;;;;;;-15.51;67.38;98743.88;5080087;28;20067;-66
2024/01/14 03:28:13;;;;;;;0.25;0.25;;;;;;;-15.31;67.65;98772.28;5080106;28;20048;-65
2024/01/14 03:30:38;;;;;;;2.67;1.40;;;;;;;-15.27;67.57;98775.00;5072603;28;20040;-66
2024/01/14 03:33:23;;;;;;;0.65;0.30;;;;;;;-15.28;67.47;98765.81;5072132;28;20036;-64
2024/01/14 03:35:49;;;;;;;0.98;0.77;;;;;;;-15.67;67.03;98696.56;5088262;28;20489;-64
2024/01/14 03:38:33;;;;;;;0.50;0.30;;;;;;;-15.30;66.99;98759.91;5081267;28;20066;-61
2024/01/14 03:40:59;;;;;;;0.95;0.60;;;;;;;-15.30;67.12;98764.91;5072153;28;20127;-65
2024/01/14 03:43:25;;;;;;;0.57;0.43;;;;;;;-15.38;67.18;98746.19;5071178;28;20589;-64
2024/01/14 03:46:10;;;;;;;1.55;1.25;;;;;;;-15.36;67.17;98747.13;5082478;28;20040;-64
2024/01/14 03:48:37;;;;;;;1.05;0.85;;;;;;;-15.37;66.73;98739.56;5073702;28;20074;-64
2024/01/14 03:51:03;;;;;;;1.08;0.82;;;;;;;-15.36;67.54;98749.63;5074272;28;20109;-64
2024/01/14 03:53:28;;;;;;;0.95;0.47;;;;;;;-15.38;68.07;98751.16;5072890;28;20512;-63
2024/01/14 03:55:54;;;;;;;1.83;1.10;;;;;;;-15.50;67.67;98736.47;5079014;28;20504;-65
2024/01/14 03:58:20;;;;;;;0.45;0.45;;;;;;;-15.48;66.85;98746.50;5081627;28;20035;-64
2024/01/14 04:01:04;;;;;;;1.55;0.57;;;;;;;-15.72;67.28;98706.28;5079295;28;20044;-65
2024/01/14 04:03:30;;;;;;;1.40;0.68;;;;;;;-15.54;66.69;98743.75;5073826;28;20079;-64
2024/01/14 04:05:58;;;;;;;4.07;1.35;;;;;;;-15.59;67.65;98738.50;5072680;28;20042;-62
2024/01/14 04:08:42;;;;;;;2.58;0.93;;;;;;;-15.63;67.48;98730.78;5072386;28;20516;-64
2024/01/14 04:11:09;;;;;;;0.22;0.22;;;;;;;-15.61;67.43;98721.78;5072559;28;20142;-64
2024/01/14 04:13:53;;;;;;;13.27;1.58;;;;;;;-15.65;66.80;98720.78;5072716;28;20029;-65
2024/01/14 04:16:38;;;;;;;1.33;0.80;;;;;;;-15.66;67.32;98713.22;5068192;28;20638;-65
2024/01/14 04:19:04;;;;;;;3.78;1.10;;;;;;;-15.67;68.03;98712.34;5079185;28;20046;-63
2024/01/14 04:21:49;;;;;;;1.55;0.68;;;;;;;-15.60;67.41;98704.44;5075475;28;20036;-65
2024/01/14 04:24:15;;;;;;;2.38;1.02;;;;;;;-15.70;67.97;98707.19;5072987;28;20045;-65
2024/01/14 04:26:41;;;;;;;1.98;1.42;;;;;;;-15.72;67.22;98700.44;5072563;28;20072;-65
2024/01/14 04:29:07;;;;;;;0.68;0.40;;;;;;;-15.72;68.02;98691.34;5068983;28;20036;-64
2024/01/14 04:31:52;;;;;;;1.13;1.02;;;;;;;-15.71;67.04;98689.72;5072268;28;20573;-64
2024/01/14 04:37:02;;;;;;;3.38;1.52;;;;;;;-15.79;67.70;98700.91;5072486;28;20044;-66
2024/01/14 04:39:28;;;;;;;1.52;1.05;;;;;;;-15.80;67.24;98694.22;5082615;28;20065;-65
2024/01/14 04:41:54;;;;;;;1.25;0.60;;;;;;;-15.76;67.80;98701.06;5080412;28;20044;-64
2024/01/14 04:44:39;;;;;;;2.33;0.98;;;;;;;-15.80;67.25;98696.72;5061454;28;20168;-64
2024/01/14 04:49:49;;;;;;;2.47;1.17;;;;;;;-16.00;67.11;98686.56;5071208;28;20952;-64
2024/01/14 04:52:15;;;;;;;2.55;1.35;;;;;;;-15.96;68.39;98695.06;5087088;28;20075;-65
2024/01/14 04:54:41;;;;;;;5.18;2.13;;;;;;;-16.09;67.58;98676.13;5075524;28;20031;-64
2024/01/14 04:57:07;;;;;;;3.47;2.90;;;;;;;-16.01;68.67;98679.84;5076125;28;20036;-63
2024/01/14 04:59:32;;;;;;;4.40;1.40;;;;;;;-16.05;68.27;98675.50;5073691;28;20067;-64
2024/01/14 05:01:59;;;;;;;0.60;0.57;;;;;;;-16.04;68.04;98682.19;5078845;28;20507;-64
2024/01/14 05:04:25;;;;;;;0.25;0.25;;;;;;;-16.05;68.47;98673.00;5071234;28;20045;-64
2024/01/14 05:06:50;;;;;;;1.38;1.02;;;;;;;-16.04;69.25;98672.25;5071015;28;20032;-64
2024/01/14 05:09:17;;;;;;;0.38;0.32;;;;;;;-15.97;68.82;98668.47;5084237;28;20047;-63
2024/01/14 05:14:46;;;;;;;1.77;1.25;;;;;;;-16.12;68.67;98641.16;5080073;28;20390;-64
2024/01/14 05:17:12;;;;;;;4.60;2.40;;;;;;;-16.29;69.26;98612.03;5054920;28;20066;-64
2024/01/14 05:19:41;;;;;;;4.63;1.40;;;;;;;-15.99;68.89;98660.03;5075627;28;20176;-62
2024/01/14 05:22:07;;;;;;;1.67;1.58;;;;;;;-16.21;68.94;98632.31;5092605;28;20032;-64
2024/01/14 05:24:33;;;;;;;3.28;1.60;;;;;;;-16.11;69.26;98637.84;5075764;28;20045;-63
2024/01/14 05:26:59;;;;;;;4.90;1.60;;;;;;;-16.30;69.24;98610.31;5072603;28;20071;-65
2024/01/14 05:29:25;;;;;;;1.98;1.25;;;;;;;-16.12;68.94;98628.72;5071657;28;20527;-64
2024/01/14 05:31:50;;;;;;;2.28;1.48;;;;;;;-15.92;68.92;98664.56;5077991;28;20036;-65
2024/01/14 05:34:35;;;;;;;1.52;0.70;;;;;;;-15.92;69.92;98674.53;5073263;28;20131;-64
2024/01/14 05:37:20;;;;;;;4.47;1.75;;;;;;;-15.87;69.05;98667.28;5081427;28;20075;-63
2024/01/14 05:39:46;;;;;;;2.08;1.00;;;;;;;-16.10;69.76;98613.84;5080372;28;20048;-63
2024/01/14 05:42:12;;;;;;;1.27;1.10;;;;;;;-15.60;69.80;98659.63;5074182;28;20499;-63
2024/01/14 05:44:38;;;;;;;4.32;1.80;;;;;;;-15.76;68.96;98616.44;5065566;28;20044;-64
2024/01/14 05:47:04;;;;;;;4.53;2.70;;;;;;;-15.38;69.03;98668.13;5082155;28;20057;-66
2024/01/14 05:49:29;;;;;;;2.53;1.60;;;;;;;-15.37;68.23;98670.69;5077134;28;20047;-65
2024/01/14 05:51:55;;;;;;;4.53;2.38;;;;;;;-15.36;68.21;98662.44;5064555;28;20044;-63
2024/01/14 05:54:21;;;;;;;1.40;1.20;;;;;;;-15.77;67.84;98589.81;5069862;28;20068;-63
2024/01/14 05:56:47;;;;;;;2.83;1.48;;;;;;;-15.26;67.40;98657.13;5074898;28;20032;-64
2024/01/14 05:59:32;;;;;;;2.00;0.50;;;;;;;-15.26;67.36;98648.78;5073099;28;20045;-64
2024/01/14 06:01:58;;;;;;;4.03;2.85;;;;;;;-15.08;68.31;98652.19;5060005;28;20085;-64
2024/01/14 06:04:24;;;;;;;3.90;2.05;;;;;;;-15.06;67.34;98653.97;5069187;28;20192;-64
2024/01/14 06:06:50;;;;;;;3.17;2.30;;;;;;;-15.02;67.36;98645.03;5087557;28;20128;-62
2024/01/14 06:09:16;;;;;;;0.95;0.90;;;;;;;-15.05;67.02;98644.84;5069175;28;20151;-63
2024/01/14 06:12:00;;;;;;;4.40;2.58;;;;;;;-15.55;67.19;98555.25;5071000;28;20036;-65
2024/01/14 06:14:45;;;;;;;1.73;1.27;;;;;;;-14.96;66.79;98602.06;5073689;28;20515;-64
2024/01/14 06:17:11;;;;;;;2.08;0.95;;;;;;;-14.78;66.54;98631.22;5065973;28;20071;-63
2024/01/14 06:19:37;;;;;;;3.22;1.55;;;;;;;-14.81;66.92;98638.53;5081125;28;20511;-64
2024/01/14 06:22:03;;;;;;;6.03;1.02;;;;;;;-14.73;66.96;98632.28;5078432;28;20465;-61
2024/01/14 06:24:29;;;;;;;7.68;2.40;;;;;;;-14.68;66.90;98648.31;5075387;28;20044;-62
2024/01/14 06:26:56;;;;;;;4.90;2.25;;;;;;;-14.73;67.42;98634.78;5069309;28;20037;-61
2024/01/14 06:29:22;;;;;;;3.63;1.88;;;;;;;-14.74;66.27;98639.69;5068610;28;20039;-61
2024/01/14 06:31:48;;;;;;;1.23;0.77;;;;;;;-14.60;66.99;98622.91;5073744;28;20051;-59
2024/01/14 06:37:17;;;;;;;10.23;2.45;;;;;;;-14.39;65.66;98618.91;5075301;28;20042;-62
2024/01/14 06:40:03;;;;;;;2.58;1.42;;;;;;;-14.26;65.61;98597.03;5081352;28;20044;-62
2024/01/14 06:42:29;;;;;;;4.18;1.98;;;;;;;-14.17;65.36;98604.06;5071065;28;20060;-62
2024/01/14 06:44:55;;;;;;;4.35;2.63;;;;;;;-14.04;66.47;98591.34;5069419;28;20102;-63
2024/01/14 06:47:21;;;;;;;6.68;2.95;;;;;;;-13.92;65.71;98601.00;5071405;28;20269;-61
2024/01/14 06:52:49;;;;;;;6.57;4.07;;;;;;;-13.75;65.90;98552.63;5071528;28;20040;-61
2024/01/14 06:55:15;;;;;;;1.88;1.23;;;;;;;-13.38;64.84;98588.34;5081877;28;20044;-59
2024/01/14 06:57:41;;;;;;;2.28;1.48;;;;;;;-13.39;65.07;98595.78;5068607;28;20040;-62
2024/01/14 07:00:10;;;;;;;6.10;3.47;;;;;;;-13.33;64.79;98596.88;5071198;28;20036;-64
2024/01/14 07:02:36;;;;;;;5.45;2.03;;;;;;;-13.15;64.69;98588.44;5061540;28;20420;-64
2024/01/14 07:05:21;;;;;;;2.55;0.88;;;;;;;-12.97;64.52;98584.97;5077705;28;20051;-67
2024/01/14 07:08:06;;;;;;;11.75;3.17;;;;;;;-13.03;64.02;98589.72;5067034;28;20052;-62
2024/01/14 07:10:32;;;;;;;10.63;3.25;;;;;;;-13.38;63.20;98550.84;5085969;28;20046;-61
2024/01/14 07:13:17;;;;;;;1.35;1.15;;;;;;;-13.23;63.20;98585.59;5083899;28;20166;-62
2024/01/14 07:15:43;;;;;;;2.53;1.42;;;;;;;-13.26;63.90;98577.16;5086624;28;20044;-63
2024/01/14 07:18:09;;;;;;;5.63;2.28;;;;;;;-13.24;63.66;98578.06;5083126;28;20656;-62
2024/01/14 07:20:35;;;;;;;6.95;3.15;;;;;;;-13.13;63.78;98571.84;5083821;28;20109;-61
2024/01/14 07:23:01;;;;;;;4.10;2.50;;;;;;;-13.03;63.08;98562.22;5099083;28;20051;-63
2024/01/14 07:25:27;;;;;;;6.93;3.17;;;;;;;-13.12;63.78;98546.03;5084309;28;20048;-63
2024/01/14 07:27:53;;;;;;;2.60;1.50;;;;;;;-13.01;63.50;98555.66;5084905;28;20040;-65
2024/01/14 07:30:19;;;;;;;7.80;2.13;;;;;;;-12.81;63.61;98543.06;5086296;28;20128;-62
2024/01/14 07:32:48;;;;;;;8.85;3.25;;;;;;;-12.91;63.69;98519.34;5086627;28;20044;-61
2024/01/14 07:35:13;;;;;;;9.20;2.30;;;;;;;-12.43;62.79;98542.00;5084749;28;20420;-64
2024/01/14 07:37:39;;;;;;;7.32;3.15;;;;;;;-12.83;62.59;98489.63;5082908;28;20040;-64
2024/01/14 07:40:06;;;;;;;8.32;3.47;;;;;;;-12.51;62.76;98542.56;5062885;28;20090;-66
2024/01/14 07:42:31;;;;;;;9.00;3.50;;;;;;;-12.27;62.68;98540.13;5069341;28;20036;-65
2024/01/14 07:44:58;;;;;;;3.60;1.95;;;;;;;-12.17;62.01;98533.78;5059328;28;20048;-66
2024/01/14 07:47:23;;;;;;;7.20;3.13;;;;;;;-12.07;61.97;98529.16;5084582;28;20339;-67
2024/01/14 07:49:50;;;;;;;8.60;3.42;;;;;;;-11.76;62.09;98528.56;5077900;28;20602;-66
2024/01/14 07:52:16;;;;;;;4.47;2.72;;;;;;;-11.46;62.15;98523.69;5072093;28;20179;-65
2024/01/14 07:54:42;;;;;;;9.95;3.05;;;;;;;-11.72;61.79;98459.34;5078396;28;20062;-67
2024/01/14 07:57:08;;;;;;;9.60;3.65;;;;;;;-11.58;61.44;98508.28;5090366;28;20040;-66
2024/01/14 07:59:33;;;;;;;10.43;3.42;;;;;;;-11.50;61.75;98513.53;5046874;28;20121;-66
2024/01/14 08:01:59;;;;;;;9.93;3.20;;;;;;;-11.18;62.05;98500.38;5084285;28;20058;-65
2024/01/14 08:04:25;;;;;;;7.65;3.58;;;;;;;-11.13;61.26;98498.00;5081327;28;20054;-65
2024/01/14 08:06:51;;;;;;;10.57;3.10;;;;;;;-11.26;60.96;98496.78;5075348;28;20603;-66
2024/01/14 08:09:17;;;;;;;10.75;3.33;;;;;;;-11.28;61.71;98504.25;5095947;27;20031;-66
2024/01/14 08:11:43;;;;;;;7.28;3.22;;;;;;;-10.95;61.63;98501.09;5061024;28;20052;-65
2024/01/14 08:14:27;;;;;;;21.02;4.32;;;;;;;-11.04;60.73;98500.81;5075095;28;20527;-67
2024/01/14 08:16:53;;;;;;;13.63;4.82;;;;;;;-11.00;61.59;98490.06;5076480;28;20040;-66
2024/01/14 08:19:19;;;;;;;8.90;4.10;;;;;;;-11.03;61.04;98433.09;5072760;28;20101;-65
2024/01/14 08:24:30;;;;;;;10.98;4.93;;;;;;;-10.01;60.90;98468.63;5074448;28;20135;-65
2024/01/14 08:29:40;;;;;;;10.98;4.05;;;;;;;-9.79;60.27;98449.94;5072053;28;20050;-64
2024/01/14 08:32:06;;;;;;;12.48;4.57;;;;;;;-9.56;60.53;98441.28;5070054;28;20041;-66
2024/01/14 08:34:51;;;;;;;9.77;3.92;;;;;;;-9.67;59.80;98455.25;5072421;28;20503;-66
2024/01/14 08:37:16;;;;;;;11.23;4.18;;;;;;;-9.89;60.18;98446.34;5067574;28;20040;-66
2024/01/14 08:39:42;;;;;;;9.70;4.45;;;;;;;-10.10;60.21;98453.31;5068369;28;20065;-62
2024/01/14 08:42:08;;;;;;;9.35;3.72;;;;;;;-9.94;60.31;98458.75;5071312;28;20127;-66
2024/01/14 08:44:34;;;;;;;7.05;3.63;;;;;;;-9.98;59.11;98463.69;5077055;28;20056;-64
2024/01/14 08:47:01;;;;;;;10.57;3.97;;;;;;;-10.13;59.81;98439.00;5073197;28;20036;-64
2024/01/14 08:49:29;;;;;;;17.23;5.18;;;;;;;-9.93;58.97;98440.38;5076577;28;20100;-64
2024/01/14 08:51:56;;;;;;;16.77;4.07;;;;;;;-10.01;59.31;98389.06;5076073;28;20552;-65
2024/01/14 08:54:25;;;;;;;13.23;4.63;;;;;;;-9.74;58.79;98438.34;5068506;28;20067;-63
2024/01/14 08:56:50;;;;;;;12.15;4.65;;;;;;;-9.57;58.79;98432.88;5071920;28;20486;-64
2024/01/14 09:02:23;;;;;;;7.28;3.83;;;;;;;-9.93;58.61;98422.78;5079420;28;20142;-64
2024/01/14 09:04:49;;;;;;;16.52;3.97;;;;;;;-9.88;59.60;98410.31;5074812;28;20040;-64
2024/01/14 09:07:14;;;;;;;13.43;4.60;;;;;;;-9.88;59.06;98420.38;5067159;28;20044;-65
2024/01/14 09:09:40;;;;;;;16.27;4.53;;;;;;;-9.76;59.31;98407.28;5088530;28;20543;-64
2024/01/14 09:12:06;;;;;;;15.70;4.97;;;;;;;-9.95;58.63;98384.19;5071156;28;20041;-66
2024/01/14 09:14:32;;;;;;;11.98;5.30;;;;;;;-9.67;58.54;98392.41;5077396;28;20043;-67
2024/01/14 09:17:17;;;;;;;12.98;3.60;;;;;;;-9.50;58.72;98406.22;5080363;28;20044;-66
2024/01/14 09:20:04;;;;;;;12.90;4.65;;;;;;;-9.75;59.48;98408.97;5073135;28;20595;-66
2024/01/14 09:22:30;;;;;;;14.60;5.05;;;;;;;-9.86;58.72;98386.09;5078362;28;20141;-66
2024/01/14 09:24:57;;;;;;;12.20;5.22;;;;;;;-9.65;59.35;98381.56;5080866;28;20093;-64
2024/01/14 09:27:42;;;;;;;10.68;3.88;;;;;;;-9.58;59.18;98390.97;5080779;28;20051;-66
2024/01/14 09:30:26;;;;;;;8.23;3.83;;;;;;;-9.81;58.49;98392.06;5069128;28;20055;-64
2024/01/14 09:32:52;;;;;;;14.77;4.60;;;;;;;-10.15;58.63;98374.47;5069682;28;20040;-64
2024/01/14 09:35:18;;;;;;;13.13;4.57;;;;;;;-10.22;58.96;98363.44;5077279;28;20584;-66
2024/01/14 09:40:48;;;;;;;12.65;4.88;;;;;;;-10.40;58.54;98327.78;5082002;28;20059;-66
2024/01/14 09:43:32;;;;;;;12.63;4.38;;;;;;;-10.09;58.33;98355.34;5081407;28;20131;-66
2024/01/14 09:45:58;;;;;;;13.52;4.57;;;;;;;-9.92;57.94;98341.53;5071468;28;20433;-66
2024/01/14 09:48:43;;;;;;;11.75;3.58;;;;;;;-10.13;57.91;98312.53;5071704;28;20752;-65
2024/01/14 09:51:31;;;;;;;9.02;4.50;;;;;;;-9.93;58.38;98336.47;5067929;28;20531;-67
2024/01/14 09:54:16;;;;;;;13.00;3.97;;;;;;;-9.86;57.57;98340.84;5073904;28;20040;-65
2024/01/14 09:56:44;;;;;;;9.45;4.13;;;;;;;-10.08;57.75;98331.06;5091464;28;20097;-66
2024/01/14 09:59:12;;;;;;;15.10;4.70;;;;;;;-10.47;58.10;98295.81;5036958;28;20594;-65
2024/01/14 10:01:39;;;;;;;13.27;5.28;;;;;;;-10.34;58.44;98332.97;5083687;28;20081;-65
2024/01/14 10:04:06;;;;;;;6.28;2.97;;;;;;;-10.56;57.85;98326.53;5066068;28;20063;-66
2024/01/14 10:06:50;;;;;;;11.35;4.93;;;;;;;-10.60;57.90;98323.91;5083741;28;20040;-66
2024/01/14 10:09:17;;;;;;;10.60;4.70;;;;;;;-10.37;58.53;98320.34;5084482;28;20140;-64
2024/01/14 10:11:43;;;;;;;12.10;4.05;;;;;;;-10.40;57.91;98275.88;5079326;28;20052;-66
2024/01/14 10:14:11;;;;;;;15.90;4.95;;;;;;;-10.14;58.47;98310.81;5082625;28;20494;-67
2024/01/14 10:16:40;;;;;;;12.43;4.13;;;;;;;-10.40;58.32;98267.50;5074092;28;20439;-67
2024/01/14 10:19:06;;;;;;;13.13;5.15;;;;;;;-10.31;58.04;98290.34;5072051;28;20075;-65
2024/01/14 10:21:33;;;;;;;12.70;4.38;;;;;;;-10.40;58.35;98292.63;5066928;28;20036;-65
2024/01/14 10:24:00;;;;;;;9.82;4.25;;;;;;;-10.64;58.29;98242.66;5075868;28;20073;-65
2024/01/14 10:26:26;;;;;;;21.83;8.18;;;;;;;-10.40;57.81;98282.56;5076988;28;20044;-66
2024/01/14 10:29:11;;;;;;;11.60;3.60;;;;;;;-10.46;57.56;98283.25;5071927;28;20101;-65
2024/01/14 10:31:37;;;;;;;10.27;4.50;;;;;;;-10.43;58.63;98270.81;5054819;28;20044;-66
2024/01/14 10:34:03;;;;;;;10.88;4.50;;;;;;;-10.45;58.41;98233.91;5074499;28;20039;-65
2024/01/14 10:36:31;;;;;;;7.93;3.58;;;;;;;-10.43;58.34;98233.13;5079265;28;20046;-65
2024/01/14 10:38:59;;;;;;;13.93;4.85;;;;;;;-10.23;58.85;98268.78;5068662;28;20043;-65
2024/01/14 10:41:25;;;;;;;15.30;5.57;;;;;;;-10.09;58.56;98269.06;5072234;28;20146;-65
2024/01/14 10:44:14;;;;;;;6.00;2.75;;;;;;;-10.06;58.47;98259.09;5078010;28;20093;-66
2024/01/14 10:46:44;;;;;;;10.02;4.65;;;;;;;-10.08;57.95;98263.22;5073560;28;20143;-64
2024/01/14 10:52:11;;;;;;;10.75;4.45;;;;;;;-10.01;57.94;98260.06;5084776;28;20044;-65
2024/01/14 10:57:45;;;;;;;11.75;3.47;;;;;;;-10.22;58.40;98235.31;5073360;28;20038;-65
2024/01/14 11:00:34;;;;;;;;;;;;;;;-10.17;58.50;98266.41;5075563;28;20068;-65
2024/01/14 11:05:47;;;;;;;3.25;2.13;;;;;;;-10.47;58.94;98253.97;5081566;28;20073;-64
2024/01/14 11:08:16;;;;;;;12.23;4.63;;;;;;;-10.37;59.45;98263.44;5057503;28;20029;-66
2024/01/14 11:10:42;;;;;;;11.60;5.43;;;;;;;-10.32;58.53;98249.31;5080708;28;20040;-65
2024/01/14 11:13:32;;;;;;;9.30;4.43;;;;;;;-10.07;58.81;98243.16;5073434;28;20040;-66
2024/01/14 11:16:12;;;;;;;8.43;4.38;;;;;;;-10.04;58.12;98240.72;5060217;28;20037;-64
2024/01/14 11:19:02;;;;;;;10.65;3.85;;;;;;;-10.02;58.04;98238.25;5079374;28;20039;-64
2024/01/14 11:21:35;;;;;;;9.35;4.40;;;;;;;-10.21;57.93;98228.63;5069907;28;20097;-63
2024/01/14 11:24:00;;;;;;;11.77;4.57;;;;;;;-10.21;58.60;98228.63;5074285;28;20052;-65
2024/01/14 11:26:28;;;;;;;14.38;5.57;;;;;;;-10.37;58.61;98227.41;5075545;28;20035;-64
2024/01/14 11:28:57;;;;;;;16.48;5.18;;;;;;;-10.35;58.02;98220.75;5075835;28;20614;-64
2024/01/14 11:32:03;;;;;;;18.55;5.60;;;;;;;-10.25;59.07;98212.63;5079930;28;20043;-63
2024/01/14 11:34:44;;;;;;;11.77;4.60;;;;;;;-10.40;58.86;98218.13;5070995;28;20036;-64
2024/01/14 11:37:29;;;;;;;10.05;3.83;;;;;;;-10.75;58.06;98168.72;5077031;28;20047;-61
2024/01/14 11:40:08;;;;;;;17.35;5.35;;;;;;;-10.77;58.85;98166.19;5075531;28;20064;-65
2024/01/14 11:43:02;;;;;;;8.13;4.07;;;;;;;-10.70;58.59;98198.97;5074475;28;20572;-65
2024/01/14 11:45:28;;;;;;;12.75;5.00;;;;;;;-10.82;58.40;98209.53;5080287;28;20082;-65
2024/01/14 11:47:55;;;;;;;14.60;4.82;;;;;;;-10.95;59.58;98180.78;5077260;28;20836;-65
2024/01/14 11:50:25;;;;;;;10.70;4.20;;;;;;;-11.10;59.03;98165.34;5079319;28;20067;-63
2024/01/14 11:53:10;;;;;;;13.65;4.35;;;;;;;-10.86;60.15;98190.19;5073369;28;20037;-62
2024/01/14 11:55:36;;;;;;;12.05;5.00;;;;;;;-11.33;59.38;98116.25;5077417;28;20041;-62
2024/01/14 11:58:17;;;;;;;4.95;2.78;;;;;;;-10.80;59.14;98186.19;5077069;28;20060;-64
2024/01/14 12:00:44;;;;;;;16.77;5.63;;;;;;;-10.83;60.18;98187.75;5085685;28;20035;-63
2024/01/14 12:03:29;;;;;;;15.13;5.55;;;;;;;-10.56;60.37;98178.41;5080746;28;20028;-64
2024/01/14 12:06:00;;;;;;;18.75;5.22;;;;;;;-10.44;59.97;98180.34;5084345;28;20047;-61
2024/01/14 12:08:26;;;;;;;11.65;4.28;;;;;;;-10.61;60.13;98182.47;5069716;28;20055;-62
2024/01/14 12:10:52;;;;;;;13.88;4.78;;;;;;;-10.73;59.24;98179.66;5062862;28;20052;-62
2024/01/14 12:13:18;;;;;;;12.68;4.07;;;;;;;-10.84;59.50;98176.03;5077037;28;20399;-67
2024/01/14 12:16:03;;;;;;;8.20;4.05;;;;;;;-10.86;60.58;98183.53;5076471;28;20139;-68
2024/01/14 12:18:40;;;;;;;5.88;4.03;;;;;;;-10.89;60.73;98172.56;5073481;28;20032;-66
2024/01/14 12:21:09;;;;;;;14.60;5.32;;;;;;;-10.97;60.53;98189.06;5072608;28;20071;-66
2024/01/14 12:23:35;;;;;;;9.95;5.05;;;;;;;-11.03;60.82;98178.88;5074170;28;20190;-65
2024/01/14 12:26:05;;;;;;;7.38;4.80;;;;;;;-10.90;60.61;98164.19;5076324;28;20087;-66